sensor_id;sensor_type;location;lat;lon;timestamp;temperature;humidity
1083;DHT22;530;51.448;7.238;2023-08-07T00:00:05;13.80;99.90
1083;DHT22;530;51.448;7.238;2023-08-07T00:02:34;13.80;99.90
1083;DHT22;530;51.448;7.238;2023-08-07T00:05:00;13.80;99.90
1083;DHT22;530;51.448;7.238;2023-08-07T00:07:26;13.80;99.90
1083;DHT22;530;51.448;7.238;2023-08-07T00:09:51;13.80;99.90
1083;DHT22;530;51.448;7.238;2023-08-07T00:12:17;13.80;99.90
1083;DHT22;530;51.448;7.238;2023-08-07T00:14:43;13.90;99.90
1083;DHT22;530;51.448;7.238;2023-08-07T00:17:08;13.90;99.90
1083;DHT22;530;51.448;7.238;2023-08-07T00:19:34;13.90;99.90
1083;DHT22;530;51.448;7.238;2023-08-07T00:22:00;13.90;99.90
1083;DHT22;530;51.448;7.238;2023-08-07T00:24:26;13.90;99.90
1083;DHT22;530;51.448;7.238;2023-08-07T00:26:51;13.80;99.90
1083;DHT22;530;51.448;7.238;2023-08-07T00:29:17;13.90;99.90
1083;DHT22;530;51.448;7.238;2023-08-07T00:31:43;13.90;99.90
1083;DHT22;530;51.448;7.238;2023-08-07T00:34:08;13.90;99.90
1083;DHT22;530;51.448;7.238;2023-08-07T00:36:35;13.90;99.90
1083;DHT22;530;51.448;7.238;2023-08-07T00:39:01;14.00;99.90
1083;DHT22;530;51.448;7.238;2023-08-07T00:41:29;13.90;99.90
1083;DHT22;530;51.448;7.238;2023-08-07T00:43:55;13.90;99.90
1083;DHT22;530;51.448;7.238;2023-08-07T00:46:20;13.90;99.90
1083;DHT22;530;51.448;7.238;2023-08-07T00:48:46;13.90;99.90
1083;DHT22;530;51.448;7.238;2023-08-07T00:51:12;13.90;99.90
1083;DHT22;530;51.448;7.238;2023-08-07T00:53:39;13.90;99.90
1083;DHT22;530;51.448;7.238;2023-08-07T00:56:05;13.90;99.90
1083;DHT22;530;51.448;7.238;2023-08-07T00:58:32;13.90;99.90
1083;DHT22;530;51.448;7.238;2023-08-07T01:00:58;14.00;99.90
1083;DHT22;530;51.448;7.238;2023-08-07T01:03:24;14.10;99.90
1083;DHT22;530;51.448;7.238;2023-08-07T01:05:50;14.10;99.90
1083;DHT22;530;51.448;7.238;2023-08-07T01:08:16;14.10;99.90
1083;DHT22;530;51.448;7.238;2023-08-07T01:13:25;14.00;99.90
1083;DHT22;530;51.448;7.238;2023-08-07T01:15:56;14.00;99.90
1083;DHT22;530;51.448;7.238;2023-08-07T01:18:26;14.00;99.90
1083;DHT22;530;51.448;7.238;2023-08-07T01:20:52;14.00;99.90
1083;DHT22;530;51.448;7.238;2023-08-07T01:23:18;14.00;99.90
1083;DHT22;530;51.448;7.238;2023-08-07T01:25:44;14.00;99.90
1083;DHT22;530;51.448;7.238;2023-08-07T01:28:26;14.00;99.90
1083;DHT22;530;51.448;7.238;2023-08-07T01:30:57;14.00;99.90
1083;DHT22;530;51.448;7.238;2023-08-07T01:33:47;14.00;99.90
1083;DHT22;530;51.448;7.238;2023-08-07T01:36:14;13.90;99.90
1083;DHT22;530;51.448;7.238;2023-08-07T01:38:41;14.00;99.90
1083;DHT22;530;51.448;7.238;2023-08-07T01:41:09;13.90;99.90
1083;DHT22;530;51.448;7.238;2023-08-07T01:43:34;13.70;99.90
1083;DHT22;530;51.448;7.238;2023-08-07T01:46:01;13.80;99.90
1083;DHT22;530;51.448;7.238;2023-08-07T01:48:27;13.70;99.90
1083;DHT22;530;51.448;7.238;2023-08-07T01:50:53;13.70;99.90
1083;DHT22;530;51.448;7.238;2023-08-07T01:53:19;13.70;99.90
1083;DHT22;530;51.448;7.238;2023-08-07T01:55:44;13.70;99.90
1083;DHT22;530;51.448;7.238;2023-08-07T01:58:10;13.80;99.90
1083;DHT22;530;51.448;7.238;2023-08-07T02:00:36;13.80;99.90
1083;DHT22;530;51.448;7.238;2023-08-07T02:03:01;13.80;99.90
1083;DHT22;530;51.448;7.238;2023-08-07T02:05:27;13.70;99.90
1083;DHT22;530;51.448;7.238;2023-08-07T02:07:52;13.80;99.90
1083;DHT22;530;51.448;7.238;2023-08-07T02:10:18;13.70;99.90
1083;DHT22;530;51.448;7.238;2023-08-07T02:12:44;13.70;99.90
1083;DHT22;530;51.448;7.238;2023-08-07T02:15:10;13.70;99.90
1083;DHT22;530;51.448;7.238;2023-08-07T02:17:35;13.80;99.90
1083;DHT22;530;51.448;7.238;2023-08-07T02:20:04;13.80;99.90
1083;DHT22;530;51.448;7.238;2023-08-07T02:22:30;13.80;99.90
1083;DHT22;530;51.448;7.238;2023-08-07T02:24:56;13.80;99.90
1083;DHT22;530;51.448;7.238;2023-08-07T02:27:22;13.80;99.90
1083;DHT22;530;51.448;7.238;2023-08-07T02:29:47;13.80;99.90
1083;DHT22;530;51.448;7.238;2023-08-07T02:32:13;13.80;99.90
1083;DHT22;530;51.448;7.238;2023-08-07T02:34:39;13.80;99.90
1083;DHT22;530;51.448;7.238;2023-08-07T02:37:04;13.70;99.90
1083;DHT22;530;51.448;7.238;2023-08-07T02:39:30;13.80;99.90
1083;DHT22;530;51.448;7.238;2023-08-07T02:41:56;13.80;99.90
1083;DHT22;530;51.448;7.238;2023-08-07T02:44:21;13.80;99.90
1083;DHT22;530;51.448;7.238;2023-08-07T02:46:47;13.70;99.90
1083;DHT22;530;51.448;7.238;2023-08-07T02:49:13;13.80;99.90
1083;DHT22;530;51.448;7.238;2023-08-07T02:51:38;13.80;99.90
1083;DHT22;530;51.448;7.238;2023-08-07T02:54:04;13.80;99.90
1083;DHT22;530;51.448;7.238;2023-08-07T02:56:30;13.80;99.90
1083;DHT22;530;51.448;7.238;2023-08-07T02:58:55;13.80;99.90
1083;DHT22;530;51.448;7.238;2023-08-07T03:01:23;13.90;99.90
1083;DHT22;530;51.448;7.238;2023-08-07T03:03:49;13.90;99.90
1083;DHT22;530;51.448;7.238;2023-08-07T03:06:15;13.80;99.90
1083;DHT22;530;51.448;7.238;2023-08-07T03:08:41;13.80;99.90
1083;DHT22;530;51.448;7.238;2023-08-07T03:11:08;13.80;99.90
1083;DHT22;530;51.448;7.238;2023-08-07T03:13:34;13.80;99.90
1083;DHT22;530;51.448;7.238;2023-08-07T03:16:03;13.90;99.90
1083;DHT22;530;51.448;7.238;2023-08-07T03:18:29;13.80;99.90
1083;DHT22;530;51.448;7.238;2023-08-07T03:20:56;13.80;99.90
1083;DHT22;530;51.448;7.238;2023-08-07T03:23:27;13.80;99.90
1083;DHT22;530;51.448;7.238;2023-08-07T03:26:10;13.80;99.90
1083;DHT22;530;51.448;7.238;2023-08-07T03:28:36;13.80;99.90
1083;DHT22;530;51.448;7.238;2023-08-07T03:31:02;13.80;99.90
1083;DHT22;530;51.448;7.238;2023-08-07T03:33:28;13.80;99.90
1083;DHT22;530;51.448;7.238;2023-08-07T03:35:54;13.80;99.90
1083;DHT22;530;51.448;7.238;2023-08-07T03:38:19;13.70;99.90
1083;DHT22;530;51.448;7.238;2023-08-07T03:40:45;13.80;99.90
1083;DHT22;530;51.448;7.238;2023-08-07T03:43:11;13.80;99.90
1083;DHT22;530;51.448;7.238;2023-08-07T03:45:36;13.80;99.90
1083;DHT22;530;51.448;7.238;2023-08-07T03:48:02;13.80;99.90
1083;DHT22;530;51.448;7.238;2023-08-07T03:50:28;13.80;99.90
1083;DHT22;530;51.448;7.238;2023-08-07T03:52:56;13.70;99.90
1083;DHT22;530;51.448;7.238;2023-08-07T03:55:21;13.70;99.90
1083;DHT22;530;51.448;7.238;2023-08-07T03:57:47;13.70;99.90
1083;DHT22;530;51.448;7.238;2023-08-07T04:00:13;13.70;99.90
1083;DHT22;530;51.448;7.238;2023-08-07T04:02:39;13.60;99.90
1083;DHT22;530;51.448;7.238;2023-08-07T04:05:06;13.60;99.90
1083;DHT22;530;51.448;7.238;2023-08-07T04:07:31;13.60;99.90
1083;DHT22;530;51.448;7.238;2023-08-07T04:09:57;13.60;99.90
1083;DHT22;530;51.448;7.238;2023-08-07T04:12:23;13.50;99.90
1083;DHT22;530;51.448;7.238;2023-08-07T04:14:49;13.60;99.90
1083;DHT22;530;51.448;7.238;2023-08-07T04:17:14;13.60;99.90
1083;DHT22;530;51.448;7.238;2023-08-07T04:19:40;13.60;99.90
1083;DHT22;530;51.448;7.238;2023-08-07T04:22:06;13.70;99.90
1083;DHT22;530;51.448;7.238;2023-08-07T04:24:31;13.70;99.90
1083;DHT22;530;51.448;7.238;2023-08-07T04:26:57;13.60;99.90
1083;DHT22;530;51.448;7.238;2023-08-07T04:29:24;13.60;99.90
1083;DHT22;530;51.448;7.238;2023-08-07T04:31:50;13.60;99.90
1083;DHT22;530;51.448;7.238;2023-08-07T04:34:15;13.60;99.90
1083;DHT22;530;51.448;7.238;2023-08-07T04:36:41;13.60;99.90
1083;DHT22;530;51.448;7.238;2023-08-07T04:39:07;13.50;99.90
1083;DHT22;530;51.448;7.238;2023-08-07T04:41:32;13.50;99.90
1083;DHT22;530;51.448;7.238;2023-08-07T04:43:58;13.50;99.90
1083;DHT22;530;51.448;7.238;2023-08-07T04:46:24;13.50;99.90
1083;DHT22;530;51.448;7.238;2023-08-07T04:48:49;13.50;99.90
1083;DHT22;530;51.448;7.238;2023-08-07T04:51:15;13.60;99.90
1083;DHT22;530;51.448;7.238;2023-08-07T04:53:41;13.50;99.90
1083;DHT22;530;51.448;7.238;2023-08-07T04:56:07;13.50;99.90
1083;DHT22;530;51.448;7.238;2023-08-07T04:58:32;13.50;99.90
1083;DHT22;530;51.448;7.238;2023-08-07T05:00:59;13.50;99.90
1083;DHT22;530;51.448;7.238;2023-08-07T05:03:25;13.40;99.90
1083;DHT22;530;51.448;7.238;2023-08-07T05:06:01;13.50;99.90
1083;DHT22;530;51.448;7.238;2023-08-07T05:08:27;13.50;99.90
1083;DHT22;530;51.448;7.238;2023-08-07T05:10:53;13.50;99.90
1083;DHT22;530;51.448;7.238;2023-08-07T05:13:18;13.50;99.90
1083;DHT22;530;51.448;7.238;2023-08-07T05:15:47;13.40;99.90
1083;DHT22;530;51.448;7.238;2023-08-07T05:18:12;13.40;99.90
1083;DHT22;530;51.448;7.238;2023-08-07T05:20:38;13.40;99.90
1083;DHT22;530;51.448;7.238;2023-08-07T05:23:04;13.40;99.90
1083;DHT22;530;51.448;7.238;2023-08-07T05:25:29;13.40;99.90
1083;DHT22;530;51.448;7.238;2023-08-07T05:27:55;13.40;99.90
1083;DHT22;530;51.448;7.238;2023-08-07T05:30:21;13.50;99.90
1083;DHT22;530;51.448;7.238;2023-08-07T05:32:46;13.50;99.90
1083;DHT22;530;51.448;7.238;2023-08-07T05:35:12;13.40;99.90
1083;DHT22;530;51.448;7.238;2023-08-07T05:37:38;13.40;99.90
1083;DHT22;530;51.448;7.238;2023-08-07T05:40:04;13.40;99.90
1083;DHT22;530;51.448;7.238;2023-08-07T05:42:30;13.30;99.90
1083;DHT22;530;51.448;7.238;2023-08-07T05:44:56;13.40;99.90
1083;DHT22;530;51.448;7.238;2023-08-07T05:47:21;13.30;99.90
1083;DHT22;530;51.448;7.238;2023-08-07T05:49:47;13.20;99.90
1083;DHT22;530;51.448;7.238;2023-08-07T05:52:14;13.30;99.90
1083;DHT22;530;51.448;7.238;2023-08-07T05:54:39;13.20;99.90
1083;DHT22;530;51.448;7.238;2023-08-07T05:57:05;13.20;99.90
1083;DHT22;530;51.448;7.238;2023-08-07T05:59:31;13.20;99.90
1083;DHT22;530;51.448;7.238;2023-08-07T06:02:00;13.30;99.90
1083;DHT22;530;51.448;7.238;2023-08-07T06:04:25;13.40;99.90
1083;DHT22;530;51.448;7.238;2023-08-07T06:06:51;13.30;99.90
1083;DHT22;530;51.448;7.238;2023-08-07T06:09:16;13.40;99.90
1083;DHT22;530;51.448;7.238;2023-08-07T06:11:43;13.40;99.90
1083;DHT22;530;51.448;7.238;2023-08-07T06:14:09;13.40;99.90
1083;DHT22;530;51.448;7.238;2023-08-07T06:16:34;13.40;99.90
1083;DHT22;530;51.448;7.238;2023-08-07T06:19:00;13.40;99.90
1083;DHT22;530;51.448;7.238;2023-08-07T06:21:26;13.40;99.90
1083;DHT22;530;51.448;7.238;2023-08-07T06:23:54;13.40;99.90
1083;DHT22;530;51.448;7.238;2023-08-07T06:26:20;13.50;99.90
1083;DHT22;530;51.448;7.238;2023-08-07T06:28:45;13.50;99.90
1083;DHT22;530;51.448;7.238;2023-08-07T06:31:12;13.40;99.90
1083;DHT22;530;51.448;7.238;2023-08-07T06:33:38;13.50;99.90
1083;DHT22;530;51.448;7.238;2023-08-07T06:36:04;13.50;99.90
1083;DHT22;530;51.448;7.238;2023-08-07T06:38:31;13.50;99.90
1083;DHT22;530;51.448;7.238;2023-08-07T06:40:56;13.50;99.90
1083;DHT22;530;51.448;7.238;2023-08-07T06:43:22;13.50;99.90
1083;DHT22;530;51.448;7.238;2023-08-07T06:45:55;13.50;99.90
1083;DHT22;530;51.448;7.238;2023-08-07T06:48:21;13.50;99.90
1083;DHT22;530;51.448;7.238;2023-08-07T06:50:51;13.60;99.90
1083;DHT22;530;51.448;7.238;2023-08-07T06:53:16;13.50;99.90
1083;DHT22;530;51.448;7.238;2023-08-07T06:55:43;13.50;99.90
1083;DHT22;530;51.448;7.238;2023-08-07T06:58:09;13.60;99.90
1083;DHT22;530;51.448;7.238;2023-08-07T07:00:35;13.60;99.90
1083;DHT22;530;51.448;7.238;2023-08-07T07:03:04;13.60;99.90
1083;DHT22;530;51.448;7.238;2023-08-07T07:05:31;13.70;99.90
1083;DHT22;530;51.448;7.238;2023-08-07T07:07:57;13.80;99.90
1083;DHT22;530;51.448;7.238;2023-08-07T07:10:23;13.70;99.90
1083;DHT22;530;51.448;7.238;2023-08-07T07:12:50;13.70;99.90
1083;DHT22;530;51.448;7.238;2023-08-07T07:15:17;13.80;99.90
1083;DHT22;530;51.448;7.238;2023-08-07T07:17:43;13.70;99.90
1083;DHT22;530;51.448;7.238;2023-08-07T07:20:09;13.80;99.90
1083;DHT22;530;51.448;7.238;2023-08-07T07:22:35;13.70;99.90
1083;DHT22;530;51.448;7.238;2023-08-07T07:25:01;13.80;99.90
1083;DHT22;530;51.448;7.238;2023-08-07T07:27:27;13.70;99.90
1083;DHT22;530;51.448;7.238;2023-08-07T07:29:52;13.70;99.90
1083;DHT22;530;51.448;7.238;2023-08-07T07:32:18;13.70;99.90
1083;DHT22;530;51.448;7.238;2023-08-07T07:34:44;13.80;99.90
1083;DHT22;530;51.448;7.238;2023-08-07T07:37:10;13.80;99.90
1083;DHT22;530;51.448;7.238;2023-08-07T07:39:36;13.80;99.90
1083;DHT22;530;51.448;7.238;2023-08-07T07:42:02;13.80;99.90
1083;DHT22;530;51.448;7.238;2023-08-07T07:44:28;13.80;99.90
1083;DHT22;530;51.448;7.238;2023-08-07T07:46:54;13.80;99.90
1083;DHT22;530;51.448;7.238;2023-08-07T07:49:20;13.80;99.90
1083;DHT22;530;51.448;7.238;2023-08-07T07:51:46;13.80;99.90
1083;DHT22;530;51.448;7.238;2023-08-07T07:54:12;13.80;99.90
1083;DHT22;530;51.448;7.238;2023-08-07T07:56:37;13.80;99.90
1083;DHT22;530;51.448;7.238;2023-08-07T07:59:03;13.80;99.90
1083;DHT22;530;51.448;7.238;2023-08-07T08:01:28;13.90;99.90
1083;DHT22;530;51.448;7.238;2023-08-07T08:03:54;13.90;99.90
1083;DHT22;530;51.448;7.238;2023-08-07T08:06:20;13.90;99.90
1083;DHT22;530;51.448;7.238;2023-08-07T08:08:46;14.00;99.90
1083;DHT22;530;51.448;7.238;2023-08-07T08:11:11;14.00;99.90
1083;DHT22;530;51.448;7.238;2023-08-07T08:13:37;14.00;99.90
1083;DHT22;530;51.448;7.238;2023-08-07T08:16:05;14.10;99.90
1083;DHT22;530;51.448;7.238;2023-08-07T08:18:31;14.10;99.90
1083;DHT22;530;51.448;7.238;2023-08-07T08:20:57;14.10;99.90
1083;DHT22;530;51.448;7.238;2023-08-07T08:23:22;14.10;99.90
1083;DHT22;530;51.448;7.238;2023-08-07T08:25:49;14.10;99.90
1083;DHT22;530;51.448;7.238;2023-08-07T08:28:15;14.10;99.90
1083;DHT22;530;51.448;7.238;2023-08-07T08:30:41;14.20;99.90
1083;DHT22;530;51.448;7.238;2023-08-07T08:33:07;14.20;99.90
1083;DHT22;530;51.448;7.238;2023-08-07T08:35:37;14.20;99.90
1083;DHT22;530;51.448;7.238;2023-08-07T08:38:02;14.20;99.90
1083;DHT22;530;51.448;7.238;2023-08-07T08:40:30;14.20;99.90
1083;DHT22;530;51.448;7.238;2023-08-07T08:42:55;14.20;99.90
1083;DHT22;530;51.448;7.238;2023-08-07T08:45:25;14.20;99.90
1083;DHT22;530;51.448;7.238;2023-08-07T08:47:59;14.20;99.90
1083;DHT22;530;51.448;7.238;2023-08-07T08:50:26;14.20;99.90
1083;DHT22;530;51.448;7.238;2023-08-07T08:52:53;14.20;99.90
1083;DHT22;530;51.448;7.238;2023-08-07T08:55:20;14.20;99.90
1083;DHT22;530;51.448;7.238;2023-08-07T08:57:46;14.20;99.90
1083;DHT22;530;51.448;7.238;2023-08-07T09:00:14;14.10;99.90
1083;DHT22;530;51.448;7.238;2023-08-07T09:03:00;14.20;99.90
1083;DHT22;530;51.448;7.238;2023-08-07T09:05:27;14.20;99.90
1083;DHT22;530;51.448;7.238;2023-08-07T09:07:53;14.30;99.90
1083;DHT22;530;51.448;7.238;2023-08-07T09:10:19;14.40;99.90
1083;DHT22;530;51.448;7.238;2023-08-07T09:13:03;14.40;99.90
1083;DHT22;530;51.448;7.238;2023-08-07T09:15:32;14.60;99.90
1083;DHT22;530;51.448;7.238;2023-08-07T09:17:58;14.70;99.90
1083;DHT22;530;51.448;7.238;2023-08-07T09:20:27;14.80;99.90
1083;DHT22;530;51.448;7.238;2023-08-07T09:22:54;14.90;99.90
1083;DHT22;530;51.448;7.238;2023-08-07T09:25:30;14.90;99.90
1083;DHT22;530;51.448;7.238;2023-08-07T09:27:57;14.90;99.90
1083;DHT22;530;51.448;7.238;2023-08-07T09:30:27;14.80;99.90
1083;DHT22;530;51.448;7.238;2023-08-07T09:32:54;14.90;99.90
1083;DHT22;530;51.448;7.238;2023-08-07T09:35:21;15.00;99.90
1083;DHT22;530;51.448;7.238;2023-08-07T09:37:48;15.10;99.90
1083;DHT22;530;51.448;7.238;2023-08-07T09:40:14;15.20;99.90
1083;DHT22;530;51.448;7.238;2023-08-07T09:42:41;15.30;99.90
1083;DHT22;530;51.448;7.238;2023-08-07T09:45:27;15.40;99.90
1083;DHT22;530;51.448;7.238;2023-08-07T09:48:05;15.60;99.90
1083;DHT22;530;51.448;7.238;2023-08-07T09:50:33;15.60;99.90
1083;DHT22;530;51.448;7.238;2023-08-07T09:52:59;15.70;99.90
1083;DHT22;530;51.448;7.238;2023-08-07T09:55:26;15.80;99.90
1083;DHT22;530;51.448;7.238;2023-08-07T09:57:52;15.80;99.90
1083;DHT22;530;51.448;7.238;2023-08-07T10:00:18;15.70;99.90
1083;DHT22;530;51.448;7.238;2023-08-07T10:02:50;15.70;99.90
1083;DHT22;530;51.448;7.238;2023-08-07T10:05:16;15.60;99.90
1083;DHT22;530;51.448;7.238;2023-08-07T10:07:42;15.50;99.90
1083;DHT22;530;51.448;7.238;2023-08-07T10:10:08;15.50;99.90
1083;DHT22;530;51.448;7.238;2023-08-07T10:12:36;15.30;99.90
1083;DHT22;530;51.448;7.238;2023-08-07T10:15:02;15.20;99.90
1083;DHT22;530;51.448;7.238;2023-08-07T10:17:29;15.20;99.90
1083;DHT22;530;51.448;7.238;2023-08-07T10:19:56;15.20;99.90
1083;DHT22;530;51.448;7.238;2023-08-07T10:22:29;15.30;99.90
1083;DHT22;530;51.448;7.238;2023-08-07T10:24:57;15.40;99.90
1083;DHT22;530;51.448;7.238;2023-08-07T10:27:25;15.60;99.90
1083;DHT22;530;51.448;7.238;2023-08-07T10:29:53;15.80;99.90
1083;DHT22;530;51.448;7.238;2023-08-07T10:32:20;16.00;99.90
1083;DHT22;530;51.448;7.238;2023-08-07T10:34:49;16.00;99.90
1083;DHT22;530;51.448;7.238;2023-08-07T10:37:40;16.20;99.90
1083;DHT22;530;51.448;7.238;2023-08-07T10:40:11;16.30;99.90
1083;DHT22;530;51.448;7.238;2023-08-07T10:42:55;16.40;99.90
1083;DHT22;530;51.448;7.238;2023-08-07T10:45:22;16.50;99.90
1083;DHT22;530;51.448;7.238;2023-08-07T10:53:37;16.50;99.90
1083;DHT22;530;51.448;7.238;2023-08-07T10:56:18;16.40;99.90
1083;DHT22;530;51.448;7.238;2023-08-07T10:58:51;16.40;99.90
1083;DHT22;530;51.448;7.238;2023-08-07T11:03:59;16.40;99.90
1083;DHT22;530;51.448;7.238;2023-08-07T11:06:30;16.40;99.90
1083;DHT22;530;51.448;7.238;2023-08-07T11:08:57;16.30;99.90
1083;DHT22;530;51.448;7.238;2023-08-07T11:11:24;16.30;99.90
1083;DHT22;530;51.448;7.238;2023-08-07T11:13:50;16.30;99.90
1083;DHT22;530;51.448;7.238;2023-08-07T11:16:17;16.40;99.90
1083;DHT22;530;51.448;7.238;2023-08-07T11:18:43;16.40;99.90
1083;DHT22;530;51.448;7.238;2023-08-07T11:21:10;16.50;99.90
1083;DHT22;530;51.448;7.238;2023-08-07T11:23:37;16.60;99.90
1083;DHT22;530;51.448;7.238;2023-08-07T11:26:03;16.70;99.90
1083;DHT22;530;51.448;7.238;2023-08-07T11:28:29;16.80;99.90
1083;DHT22;530;51.448;7.238;2023-08-07T11:30:56;17.00;99.90
1083;DHT22;530;51.448;7.238;2023-08-07T11:33:23;17.20;99.90
1083;DHT22;530;51.448;7.238;2023-08-07T11:35:50;17.40;99.90
1083;DHT22;530;51.448;7.238;2023-08-07T11:38:32;17.40;99.90
1083;DHT22;530;51.448;7.238;2023-08-07T11:41:01;17.50;99.90
1083;DHT22;530;51.448;7.238;2023-08-07T11:43:32;17.70;99.90
1083;DHT22;530;51.448;7.238;2023-08-07T11:45:59;17.80;99.90
1083;DHT22;530;51.448;7.238;2023-08-07T11:48:27;17.80;99.90
1083;DHT22;530;51.448;7.238;2023-08-07T11:50:54;17.70;99.90
1083;DHT22;530;51.448;7.238;2023-08-07T11:53:21;17.60;99.90
1083;DHT22;530;51.448;7.238;2023-08-07T11:55:51;17.50;99.90
1083;DHT22;530;51.448;7.238;2023-08-07T11:58:17;17.50;99.90
1083;DHT22;530;51.448;7.238;2023-08-07T12:00:46;17.60;99.90
1083;DHT22;530;51.448;7.238;2023-08-07T12:03:25;17.70;99.90
1083;DHT22;530;51.448;7.238;2023-08-07T12:05:53;17.80;99.90
1083;DHT22;530;51.448;7.238;2023-08-07T12:08:19;17.80;99.90
1083;DHT22;530;51.448;7.238;2023-08-07T12:10:53;17.80;99.90
1083;DHT22;530;51.448;7.238;2023-08-07T12:13:25;18.00;99.90
1083;DHT22;530;51.448;7.238;2023-08-07T12:15:55;18.10;99.90
1083;DHT22;530;51.448;7.238;2023-08-07T12:18:22;18.30;99.90
1083;DHT22;530;51.448;7.238;2023-08-07T12:20:51;18.40;99.90
1083;DHT22;530;51.448;7.238;2023-08-07T12:23:20;18.50;99.90
1083;DHT22;530;51.448;7.238;2023-08-07T12:25:46;18.60;99.90
1083;DHT22;530;51.448;7.238;2023-08-07T12:28:12;18.60;99.90
1083;DHT22;530;51.448;7.238;2023-08-07T12:30:38;18.60;99.90
1083;DHT22;530;51.448;7.238;2023-08-07T12:33:04;18.70;99.90
1083;DHT22;530;51.448;7.238;2023-08-07T12:35:31;18.70;99.90
1083;DHT22;530;51.448;7.238;2023-08-07T12:37:57;18.80;99.90
1083;DHT22;530;51.448;7.238;2023-08-07T12:40:23;18.80;99.90
1083;DHT22;530;51.448;7.238;2023-08-07T12:42:50;19.00;99.90
1083;DHT22;530;51.448;7.238;2023-08-07T12:45:16;19.10;99.90
1083;DHT22;530;51.448;7.238;2023-08-07T12:47:44;19.20;99.90
1083;DHT22;530;51.448;7.238;2023-08-07T12:50:11;19.20;99.90
1083;DHT22;530;51.448;7.238;2023-08-07T12:52:37;19.10;99.90
1083;DHT22;530;51.448;7.238;2023-08-07T12:55:03;18.80;99.90
1083;DHT22;530;51.448;7.238;2023-08-07T12:57:29;18.60;99.90
1083;DHT22;530;51.448;7.238;2023-08-07T12:59:55;18.40;99.90
1083;DHT22;530;51.448;7.238;2023-08-07T13:02:20;18.30;99.90
1083;DHT22;530;51.448;7.238;2023-08-07T13:04:46;18.40;99.90
1083;DHT22;530;51.448;7.238;2023-08-07T13:07:12;18.60;99.90
1083;DHT22;530;51.448;7.238;2023-08-07T13:09:37;18.70;99.90
1083;DHT22;530;51.448;7.238;2023-08-07T13:12:04;18.80;99.90
1083;DHT22;530;51.448;7.238;2023-08-07T13:14:29;18.90;99.90
1083;DHT22;530;51.448;7.238;2023-08-07T13:16:55;18.90;99.90
1083;DHT22;530;51.448;7.238;2023-08-07T13:19:21;18.90;99.90
1083;DHT22;530;51.448;7.238;2023-08-07T13:21:47;18.90;99.90
1083;DHT22;530;51.448;7.238;2023-08-07T13:24:12;19.00;99.90
1083;DHT22;530;51.448;7.238;2023-08-07T13:26:38;18.90;99.90
1083;DHT22;530;51.448;7.238;2023-08-07T13:29:10;19.00;99.90
1083;DHT22;530;51.448;7.238;2023-08-07T13:31:36;19.00;99.90
1083;DHT22;530;51.448;7.238;2023-08-07T13:34:02;19.00;99.90
1083;DHT22;530;51.448;7.238;2023-08-07T13:36:33;19.10;99.90
1083;DHT22;530;51.448;7.238;2023-08-07T13:38:59;19.10;99.90
1083;DHT22;530;51.448;7.238;2023-08-07T13:41:26;19.20;99.90
1083;DHT22;530;51.448;7.238;2023-08-07T13:43:52;19.20;99.90
1083;DHT22;530;51.448;7.238;2023-08-07T13:46:17;19.30;99.90
1083;DHT22;530;51.448;7.238;2023-08-07T13:48:44;19.30;99.90
1083;DHT22;530;51.448;7.238;2023-08-07T13:51:10;19.30;99.90
1083;DHT22;530;51.448;7.238;2023-08-07T13:53:36;19.40;99.90
1083;DHT22;530;51.448;7.238;2023-08-07T13:56:02;19.40;99.90
1083;DHT22;530;51.448;7.238;2023-08-07T13:58:28;19.40;99.90
1083;DHT22;530;51.448;7.238;2023-08-07T14:00:55;19.40;99.90
1083;DHT22;530;51.448;7.238;2023-08-07T14:03:21;19.30;99.90
1083;DHT22;530;51.448;7.238;2023-08-07T14:05:47;19.30;99.90
1083;DHT22;530;51.448;7.238;2023-08-07T14:08:13;19.30;99.90
1083;DHT22;530;51.448;7.238;2023-08-07T14:10:38;19.20;99.90
1083;DHT22;530;51.448;7.238;2023-08-07T14:13:06;19.20;99.90
1083;DHT22;530;51.448;7.238;2023-08-07T14:15:32;19.10;99.90
1083;DHT22;530;51.448;7.238;2023-08-07T14:17:57;19.00;99.90
1083;DHT22;530;51.448;7.238;2023-08-07T14:20:23;18.90;99.90
1083;DHT22;530;51.448;7.238;2023-08-07T14:22:52;18.80;99.90
1083;DHT22;530;51.448;7.238;2023-08-07T14:25:18;18.70;99.90
1083;DHT22;530;51.448;7.238;2023-08-07T14:27:44;18.90;99.90
1083;DHT22;530;51.448;7.238;2023-08-07T14:30:10;19.30;99.90
1083;DHT22;530;51.448;7.238;2023-08-07T14:32:36;19.90;99.90
1083;DHT22;530;51.448;7.238;2023-08-07T14:35:01;19.90;99.90
1083;DHT22;530;51.448;7.238;2023-08-07T14:37:27;19.80;99.90
1083;DHT22;530;51.448;7.238;2023-08-07T14:39:53;19.60;99.90
1083;DHT22;530;51.448;7.238;2023-08-07T14:42:19;19.60;99.90
1083;DHT22;530;51.448;7.238;2023-08-07T14:44:45;19.50;99.90
1083;DHT22;530;51.448;7.238;2023-08-07T14:47:10;19.50;99.90
1083;DHT22;530;51.448;7.238;2023-08-07T14:49:36;19.50;99.90
1083;DHT22;530;51.448;7.238;2023-08-07T14:52:02;19.50;99.90
1083;DHT22;530;51.448;7.238;2023-08-07T14:54:28;19.50;99.90
1083;DHT22;530;51.448;7.238;2023-08-07T14:56:53;19.50;99.90
1083;DHT22;530;51.448;7.238;2023-08-07T14:59:19;19.60;99.90
1083;DHT22;530;51.448;7.238;2023-08-07T15:01:45;19.50;99.90
1083;DHT22;530;51.448;7.238;2023-08-07T15:04:10;19.50;99.90
1083;DHT22;530;51.448;7.238;2023-08-07T15:06:36;19.40;99.90
1083;DHT22;530;51.448;7.238;2023-08-07T15:09:02;19.50;99.90
1083;DHT22;530;51.448;7.238;2023-08-07T15:11:28;19.40;99.90
1083;DHT22;530;51.448;7.238;2023-08-07T15:13:54;19.30;99.90
1083;DHT22;530;51.448;7.238;2023-08-07T15:16:19;19.20;99.90
1083;DHT22;530;51.448;7.238;2023-08-07T15:18:45;19.10;99.90
1083;DHT22;530;51.448;7.238;2023-08-07T15:21:11;19.10;99.90
1083;DHT22;530;51.448;7.238;2023-08-07T15:23:36;19.10;99.90
1083;DHT22;530;51.448;7.238;2023-08-07T15:26:02;19.20;99.90
1083;DHT22;530;51.448;7.238;2023-08-07T15:28:28;19.20;99.90
1083;DHT22;530;51.448;7.238;2023-08-07T15:30:53;19.10;99.90
1083;DHT22;530;51.448;7.238;2023-08-07T15:33:19;19.00;99.90
1083;DHT22;530;51.448;7.238;2023-08-07T15:35:45;18.90;99.90
1083;DHT22;530;51.448;7.238;2023-08-07T15:38:11;18.90;99.90
1083;DHT22;530;51.448;7.238;2023-08-07T15:40:38;18.80;99.90
1083;DHT22;530;51.448;7.238;2023-08-07T15:43:04;18.80;99.90
1083;DHT22;530;51.448;7.238;2023-08-07T15:45:30;18.70;99.90
1083;DHT22;530;51.448;7.238;2023-08-07T15:47:56;18.60;99.90
1083;DHT22;530;51.448;7.238;2023-08-07T15:50:21;18.50;99.90
1083;DHT22;530;51.448;7.238;2023-08-07T15:52:48;18.50;99.90
1083;DHT22;530;51.448;7.238;2023-08-07T15:55:14;18.50;99.90
1083;DHT22;530;51.448;7.238;2023-08-07T15:57:39;18.50;99.90
1083;DHT22;530;51.448;7.238;2023-08-07T16:00:06;18.50;99.90
1083;DHT22;530;51.448;7.238;2023-08-07T16:02:33;18.50;99.90
1083;DHT22;530;51.448;7.238;2023-08-07T16:04:58;18.50;99.90
1083;DHT22;530;51.448;7.238;2023-08-07T16:07:24;18.40;99.90
1083;DHT22;530;51.448;7.238;2023-08-07T16:09:50;18.40;99.90
1083;DHT22;530;51.448;7.238;2023-08-07T16:12:15;18.30;99.90
1083;DHT22;530;51.448;7.238;2023-08-07T16:14:44;18.30;99.90
1083;DHT22;530;51.448;7.238;2023-08-07T16:17:10;18.20;99.90
1083;DHT22;530;51.448;7.238;2023-08-07T16:19:36;18.20;99.90
1083;DHT22;530;51.448;7.238;2023-08-07T16:22:02;18.20;99.90
1083;DHT22;530;51.448;7.238;2023-08-07T16:24:27;18.10;99.90